Time;durP1;ratioP1;P1;durP2;ratioP2;P2;SDS_P1;SDS_P2;PMS_P1;PMS_P2;Temp;Humidity;BMP_temperature;BMP_pressure;BME280_temperature;BME280_humidity;BME280_pressure;Samples;Min_cycle;Max_cycle;Signal;HPM_P1;HPM_P2
2022/09/03 00:00:19;;;;;;;1.67;1.58;;;18.80;99.90;;;;;;5051157;28;20642;-48
2022/09/03 00:02:48;;;;;;;4.13;2.65;;;18.70;99.90;;;;;;5049016;28;20174;-48
2022/09/03 00:05:33;;;;;;;3.42;2.13;;;18.70;99.90;;;;;;5052132;28;20178;-46
2022/09/03 00:08:26;;;;;;;2.15;1.75;;;18.70;99.90;;;;;;5052507;28;20223;-47
2022/09/03 00:10:55;;;;;;;2.92;2.22;;;18.70;99.90;;;;;;5052112;28;20169;-46
2022/09/03 00:13:33;;;;;;;2.35;1.60;;;18.70;99.90;;;;;;5051282;28;20242;-45
2022/09/03 00:16:01;;;;;;;3.78;2.38;;;18.70;99.90;;;;;;5052115;28;20244;-46
2022/09/03 00:18:32;;;;;;;4.68;1.70;;;18.70;99.90;;;;;;5052124;28;20204;-46
2022/09/03 00:21:17;;;;;;;7.22;1.70;;;18.60;99.90;;;;;;5052379;28;20174;-47
2022/09/03 00:23:46;;;;;;;7.20;2.78;;;18.60;99.90;;;;;;5051985;28;20166;-47
2022/09/03 00:26:12;;;;;;;6.55;2.80;;;18.60;99.90;;;;;;5051906;28;20202;-46
2022/09/03 00:28:53;;;;;;;5.45;2.25;;;18.50;99.90;;;;;;5051935;28;20163;-48
2022/09/03 00:31:25;;;;;;;1.85;1.50;;;18.50;99.90;;;;;;5051998;28;20174;-48
2022/09/03 00:33:55;;;;;;;3.08;2.17;;;18.50;99.90;;;;;;5051833;28;20638;-46
2022/09/03 00:36:34;;;;;;;6.32;2.75;;;18.50;99.90;;;;;;5051945;28;20163;-47
2022/09/03 00:38:59;;;;;;;5.72;2.63;;;18.40;99.90;;;;;;5051824;28;20728;-45
2022/09/03 00:41:40;;;;;;;7.53;2.70;;;18.40;99.90;;;;;;5051820;28;20175;-46
2022/09/03 00:44:30;;;;;;;5.72;2.35;;;18.40;99.90;;;;;;5052333;28;20236;-46
2022/09/03 00:47:17;;;;;;;6.93;2.67;;;18.30;99.90;;;;;;5051836;28;20206;-46
2022/09/03 00:50:19;;;;;;;3.35;1.88;;;18.30;99.90;;;;;;5051949;28;20197;-46
2022/09/03 00:53:22;;;;;;;3.63;1.65;;;18.30;99.90;;;;;;5051928;28;20166;-46
2022/09/03 00:55:57;;;;;;;5.68;2.38;;;18.20;99.90;;;;;;5050406;28;20215;-47
2022/09/03 00:58:44;;;;;;;4.03;2.42;;;18.20;99.90;;;;;;5051821;28;20185;-47
2022/09/03 01:01:19;;;;;;;7.25;2.63;;;18.20;99.90;;;;;;5051636;28;20162;-46
2022/09/03 01:04:02;;;;;;;3.75;2.40;;;18.20;99.90;;;;;;5051644;28;20177;-46
2022/09/03 01:06:33;;;;;;;8.30;3.20;;;18.20;99.90;;;;;;5051468;28;20186;-47
2022/09/03 01:09:16;;;;;;;5.38;2.33;;;18.20;99.90;;;;;;5051495;28;20193;-46
2022/09/03 01:11:54;;;;;;;4.80;2.47;;;18.20;99.90;;;;;;5051511;28;20245;-48
2022/09/03 01:14:26;;;;;;;5.00;1.30;;;18.20;99.90;;;;;;5051383;28;20217;-46
2022/09/03 01:17:02;;;;;;;5.90;2.45;;;18.10;99.90;;;;;;5051442;28;20163;-47
2022/09/03 01:20:00;;;;;;;4.13;2.10;;;18.20;99.90;;;;;;5051659;28;20219;-46
2022/09/03 01:22:45;;;;;;;4.60;2.22;;;18.10;99.90;;;;;;5051397;28;20201;-47
2022/09/03 01:25:16;;;;;;;3.15;1.60;;;18.10;99.90;;;;;;5055376;28;20228;-46
2022/09/03 01:28:00;;;;;;;1.65;1.52;;;18.10;99.90;;;;;;5055446;28;20562;-46
2022/09/03 01:30:27;;;;;;;3.90;1.80;;;18.00;99.90;;;;;;5055675;28;21049;-47
2022/09/03 01:33:14;;;;;;;4.93;1.85;;;18.00;99.90;;;;;;5055174;28;20167;-45
2022/09/03 01:35:45;;;;;;;2.22;1.33;;;18.00;99.90;;;;;;5055120;28;20173;-46
2022/09/03 01:38:33;;;;;;;2.22;1.70;;;18.00;99.90;;;;;;5055027;28;20174;-47
2022/09/03 01:44:02;;;;;;;2.88;1.50;;;17.90;99.90;;;;;;5055014;28;20178;-47
2022/09/03 01:46:41;;;;;;;2.22;1.70;;;17.90;99.90;;;;;;5054793;28;20332;-46
2022/09/03 01:49:33;;;;;;;2.33;1.50;;;17.90;99.90;;;;;;5055342;28;20166;-46
2022/09/03 01:52:11;;;;;;;3.15;1.55;;;17.80;99.90;;;;;;5054718;28;20179;-49
2022/09/03 01:54:51;;;;;;;3.08;2.15;;;17.80;99.90;;;;;;5055056;28;20170;-46
2022/09/03 01:57:40;;;;;;;3.10;1.90;;;17.80;99.90;;;;;;5054779;28;20232;-49
2022/09/03 02:00:12;;;;;;;2.17;1.40;;;17.80;99.90;;;;;;5055077;28;20591;-48
2022/09/03 02:02:43;;;;;;;4.05;1.88;;;17.80;99.90;;;;;;5054561;28;20201;-47
2022/09/03 02:05:13;;;;;;;4.15;2.20;;;17.70;99.90;;;;;;5054682;28;20174;-46
2022/09/03 02:07:51;;;;;;;5.18;1.65;;;17.70;99.90;;;;;;5054662;28;20203;-46
2022/09/03 02:10:21;;;;;;;2.88;1.77;;;17.70;99.90;;;;;;5054765;28;20231;-46
2022/09/03 02:12:50;;;;;;;1.50;1.40;;;17.70;99.90;;;;;;5054360;28;20257;-47
2022/09/03 02:15:20;;;;;;;1.63;1.50;;;17.70;99.90;;;;;;5054505;28;20250;-48
2022/09/03 02:17:48;;;;;;;2.15;1.60;;;17.70;99.90;;;;;;5054419;28;20163;-47
2022/09/03 02:20:20;;;;;;;1.50;1.40;;;17.70;99.90;;;;;;5054374;28;20159;-46
2022/09/03 02:22:48;;;;;;;1.80;1.30;;;17.70;99.90;;;;;;5054364;28;20223;-47
2022/09/03 02:25:15;;;;;;;3.75;1.90;;;17.60;99.90;;;;;;5054523;28;20170;-47
2022/09/03 02:27:41;;;;;;;2.20;1.35;;;17.60;99.90;;;;;;5054080;28;20209;-48
2022/09/03 02:30:07;;;;;;;2.85;1.25;;;17.50;99.90;;;;;;5054159;28;20159;-46
2022/09/03 02:32:33;;;;;;;5.55;1.40;;;17.50;99.90;;;;;;5054427;28;20221;-46
2022/09/03 02:34:59;;;;;;;2.65;1.52;;;17.50;99.90;;;;;;5052984;28;20162;-47
2022/09/03 02:37:25;;;;;;;3.40;1.70;;;17.50;99.90;;;;;;5054190;28;20558;-47
2022/09/03 02:39:51;;;;;;;2.78;1.63;;;17.50;99.90;;;;;;5054170;28;20186;-46
2022/09/03 02:42:17;;;;;;;2.65;1.50;;;17.50;99.90;;;;;;5053905;28;20174;-47
2022/09/03 02:44:56;;;;;;;1.88;1.40;;;17.50;99.90;;;;;;5053811;28;20627;-46
2022/09/03 02:47:27;;;;;;;1.83;1.45;;;17.40;99.90;;;;;;5053992;28;20298;-46
2022/09/03 02:49:53;;;;;;;2.10;1.90;;;17.40;99.90;;;;;;5053780;28;20221;-46
2022/09/03 02:52:18;;;;;;;1.85;1.58;;;17.40;99.90;;;;;;5053809;28;20174;-48
2022/09/03 02:54:44;;;;;;;3.25;1.80;;;17.40;99.90;;;;;;5053629;28;20174;-47
2022/09/03 02:57:13;;;;;;;2.05;1.83;;;17.30;99.90;;;;;;5053852;28;20202;-47
2022/09/03 02:59:40;;;;;;;2.58;1.80;;;17.40;99.90;;;;;;5053609;28;20657;-48
2022/09/03 03:02:06;;;;;;;3.95;2.15;;;17.40;99.90;;;;;;5052636;28;20166;-48
2022/09/03 03:04:32;;;;;;;3.30;1.90;;;17.30;99.90;;;;;;5053885;28;20167;-47
2022/09/03 03:06:58;;;;;;;3.35;1.80;;;17.30;99.90;;;;;;5053359;28;20278;-46
2022/09/03 03:09:24;;;;;;;2.03;1.60;;;17.10;99.90;;;;;;5053655;28;20257;-47
2022/09/03 03:11:50;;;;;;;1.98;1.40;;;17.10;99.90;;;;;;5053337;28;20716;-47
2022/09/03 03:14:17;;;;;;;1.90;1.60;;;17.20;99.90;;;;;;5052092;28;20582;-47
2022/09/03 03:16:43;;;;;;;2.10;1.70;;;17.20;99.90;;;;;;5053565;28;20293;-46
2022/09/03 03:19:08;;;;;;;3.50;1.58;;;17.10;99.90;;;;;;5053196;28;20176;-45
2022/09/03 03:21:34;;;;;;;3.53;1.60;;;17.10;99.90;;;;;;5053538;28;20173;-47
2022/09/03 03:24:01;;;;;;;1.73;1.48;;;17.10;99.90;;;;;;5052757;28;20572;-47
2022/09/03 03:26:27;;;;;;;2.20;1.58;;;17.10;99.90;;;;;;5052993;28;20209;-48
2022/09/03 03:28:58;;;;;;;1.83;1.50;;;17.10;99.90;;;;;;5053104;28;20626;-47
2022/09/03 03:31:24;;;;;;;1.90;1.70;;;17.10;99.90;;;;;;5053291;28;20175;-47
2022/09/03 03:33:58;;;;;;;4.40;1.58;;;17.10;99.90;;;;;;5052912;28;20228;-47
2022/09/03 03:36:26;;;;;;;2.33;1.63;;;17.00;99.90;;;;;;5052817;28;20171;-47
2022/09/03 03:38:54;;;;;;;1.40;1.30;;;17.00;99.90;;;;;;5052993;28;20159;-48
2022/09/03 03:41:22;;;;;;;1.67;1.40;;;17.00;99.90;;;;;;5052913;28;20167;-47
2022/09/03 03:43:53;;;;;;;1.33;1.23;;;17.10;99.90;;;;;;5052972;28;20215;-49
2022/09/03 03:46:20;;;;;;;2.47;1.40;;;17.00;99.90;;;;;;5052452;28;20285;-47
2022/09/03 03:48:50;;;;;;;1.85;1.40;;;17.00;99.90;;;;;;5052872;28;20178;-48
2022/09/03 03:51:16;;;;;;;3.10;1.60;;;17.00;99.90;;;;;;5052615;28;20638;-47
2022/09/03 03:53:41;;;;;;;4.35;1.48;;;17.00;99.90;;;;;;5051318;28;20174;-46
2022/09/03 03:56:10;;;;;;;1.40;1.20;;;17.00;99.90;;;;;;5052454;28;20640;-47
2022/09/03 03:58:36;;;;;;;4.10;1.40;;;16.90;99.90;;;;;;5052900;28;20174;-48
2022/09/03 04:01:10;;;;;;;1.58;1.48;;;16.90;99.90;;;;;;5052706;28;20648;-47
2022/09/03 04:03:36;;;;;;;2.25;1.67;;;17.00;99.90;;;;;;5052448;28;20170;-46
2022/09/03 04:06:03;;;;;;;1.77;1.40;;;17.00;99.90;;;;;;5052570;28;20201;-47
2022/09/03 04:08:30;;;;;;;2.05;1.52;;;16.90;99.90;;;;;;5052623;28;20225;-48
2022/09/03 04:11:00;;;;;;;1.50;1.25;;;16.90;99.90;;;;;;5052313;28;20745;-48
2022/09/03 04:13:37;;;;;;;3.85;1.30;;;17.00;99.90;;;;;;5052051;28;20237;-47
2022/09/03 04:16:08;;;;;;;2.08;1.40;;;17.00;99.90;;;;;;5052540;28;20174;-47
2022/09/03 04:18:34;;;;;;;3.47;1.30;;;17.00;99.90;;;;;;5052682;28;20167;-47
2022/09/03 04:21:08;;;;;;;1.50;1.40;;;17.00;99.90;;;;;;5052067;28;20167;-48
2022/09/03 04:23:37;;;;;;;1.40;1.30;;;17.00;99.90;;;;;;5052354;28;20162;-46
2022/09/03 04:26:03;;;;;;;1.80;1.50;;;17.00;99.90;;;;;;5052364;28;20761;-46
2022/09/03 04:28:29;;;;;;;1.15;1.05;;;17.00;99.90;;;;;;5051881;28;20179;-46
2022/09/03 04:30:59;;;;;;;2.42;1.20;;;16.90;99.90;;;;;;5052256;28;20646;-46
2022/09/03 04:33:24;;;;;;;4.18;1.38;;;17.00;99.90;;;;;;5051959;28;20504;-46
2022/09/03 04:35:50;;;;;;;3.42;1.20;;;17.00;99.90;;;;;;5051794;28;20242;-47
2022/09/03 04:38:16;;;;;;;3.33;1.30;;;16.90;99.90;;;;;;5051930;28;20649;-47
2022/09/03 04:40:41;;;;;;;2.45;1.30;;;17.00;99.90;;;;;;5051909;28;20170;-47
2022/09/03 04:43:07;;;;;;;3.53;1.58;;;17.00;99.90;;;;;;5051857;28;20185;-46
2022/09/03 04:45:32;;;;;;;4.63;1.40;;;17.00;99.90;;;;;;5051963;28;20200;-46
2022/09/03 04:48:00;;;;;;;1.30;1.20;;;17.00;99.90;;;;;;5051721;28;20633;-48
2022/09/03 04:50:26;;;;;;;1.52;1.10;;;17.00;99.90;;;;;;5052050;28;20177;-49
2022/09/03 04:52:56;;;;;;;1.42;1.33;;;17.00;99.90;;;;;;5051939;28;20228;-50
2022/09/03 04:55:22;;;;;;;1.95;1.40;;;17.00;99.90;;;;;;5051615;28;20726;-47
2022/09/03 04:57:48;;;;;;;1.50;1.40;;;17.00;99.90;;;;;;5051778;28;20246;-48
2022/09/03 05:00:16;;;;;;;2.28;1.42;;;17.00;99.90;;;;;;5055789;28;20193;-47
2022/09/03 05:02:45;;;;;;;1.83;1.20;;;17.10;99.90;;;;;;5055759;28;20228;-48
2022/09/03 05:05:11;;;;;;;1.45;1.35;;;17.10;99.90;;;;;;5055926;28;20244;-48
2022/09/03 05:07:37;;;;;;;3.72;1.13;;;17.10;99.90;;;;;;5055496;28;20694;-49
2022/09/03 05:10:19;;;;;;;4.47;1.23;;;17.10;99.90;;;;;;5055976;28;20163;-49
2022/09/03 05:12:46;;;;;;;4.35;1.35;;;17.10;99.90;;;;;;5055369;28;20188;-47
2022/09/03 05:15:13;;;;;;;3.80;1.40;;;17.10;99.90;;;;;;5055633;28;20182;-48
2022/09/03 05:17:38;;;;;;;1.60;1.50;;;17.20;99.90;;;;;;5055488;28;20177;-49
2022/09/03 05:20:08;;;;;;;1.40;1.20;;;17.30;99.90;;;;;;5055866;28;20561;-50
2022/09/03 05:22:34;;;;;;;1.20;1.10;;;17.30;99.90;;;;;;5055763;28;20186;-49
2022/09/03 05:25:00;;;;;;;3.45;1.10;;;17.30;99.90;;;;;;5055354;28;20628;-49
2022/09/03 05:27:25;;;;;;;1.75;1.30;;;17.30;99.90;;;;;;5055233;28;20230;-49
2022/09/03 05:29:51;;;;;;;1.10;1.02;;;17.30;99.90;;;;;;5055239;28;20212;-48
2022/09/03 05:32:16;;;;;;;1.73;1.30;;;17.30;99.90;;;;;;5055206;28;20175;-50
2022/09/03 05:34:45;;;;;;;1.10;1.00;;;17.30;99.90;;;;;;5055125;28;20166;-49
2022/09/03 05:37:11;;;;;;;7.10;1.38;;;17.40;99.90;;;;;;5055063;28;20532;-50
2022/09/03 05:39:37;;;;;;;1.27;1.17;;;17.40;99.90;;;;;;5055354;28;20185;-49
2022/09/03 05:42:02;;;;;;;2.00;1.40;;;17.50;99.90;;;;;;5055607;28;20527;-50
2022/09/03 05:44:29;;;;;;;1.48;1.10;;;17.50;99.90;;;;;;5054486;28;20670;-50
2022/09/03 05:46:54;;;;;;;3.50;1.30;;;17.50;99.90;;;;;;5054812;28;20655;-49
2022/09/03 05:49:20;;;;;;;1.55;1.10;;;17.50;99.90;;;;;;5055143;28;20185;-49
2022/09/03 05:51:45;;;;;;;1.42;1.33;;;17.60;99.90;;;;;;5054622;28;20175;-49
2022/09/03 05:54:11;;;;;;;2.45;1.30;;;17.60;99.90;;;;;;5054548;28;20250;-49
2022/09/03 05:56:38;;;;;;;2.03;1.40;;;17.70;99.90;;;;;;5054793;28;20696;-49
2022/09/03 05:59:07;;;;;;;2.85;0.98;;;17.60;99.90;;;;;;5054993;28;20710;-50
2022/09/03 06:01:41;;;;;;;1.30;1.20;;;17.70;99.90;;;;;;5054885;28;20173;-49
2022/09/03 06:04:09;;;;;;;2.88;1.10;;;17.80;99.90;;;;;;5054607;28;20158;-50
2022/09/03 06:06:38;;;;;;;1.23;1.13;;;17.90;99.90;;;;;;5054489;28;20226;-48
2022/09/03 06:09:07;;;;;;;5.25;1.48;;;18.00;99.90;;;;;;5054727;28;20170;-49
2022/09/03 06:11:34;;;;;;;5.30;1.20;;;18.00;99.90;;;;;;5054747;28;20216;-49
2022/09/03 06:14:04;;;;;;;1.25;1.15;;;18.00;99.90;;;;;;5054249;28;20720;-49
2022/09/03 06:16:32;;;;;;;2.25;1.33;;;18.10;99.90;;;;;;5054480;28;20181;-50
2022/09/03 06:19:00;;;;;;;1.63;1.48;;;18.10;99.90;;;;;;5053908;28;20159;-49
2022/09/03 06:21:28;;;;;;;2.08;1.20;;;18.20;99.90;;;;;;5054466;28;20252;-49
2022/09/03 06:23:58;;;;;;;1.67;1.15;;;18.40;99.90;;;;;;5053833;28;20232;-49
2022/09/03 06:26:24;;;;;;;2.70;1.20;;;18.40;99.90;;;;;;5053946;28;20230;-47
2022/09/03 06:28:53;;;;;;;1.45;1.30;;;18.40;99.90;;;;;;5053685;28;20163;-47
2022/09/03 06:31:20;;;;;;;1.40;1.30;;;18.50;99.90;;;;;;5052735;28;20281;-47
2022/09/03 06:33:46;;;;;;;1.85;1.50;;;18.50;99.90;;;;;;5054229;28;20175;-44
2022/09/03 06:36:17;;;;;;;2.67;1.15;;;18.60;99.90;;;;;;5053771;28;20633;-47
2022/09/03 06:38:43;;;;;;;4.40;1.50;;;18.70;99.90;;;;;;5053010;28;20228;-49
2022/09/03 06:41:23;;;;;;;2.88;1.38;;;18.80;99.90;;;;;;5053860;28;20162;-47
2022/09/03 06:43:54;;;;;;;1.30;1.20;;;18.80;99.90;;;;;;5054044;28;20175;-49
2022/09/03 06:46:22;;;;;;;2.97;1.20;;;18.80;99.90;;;;;;5053914;28;20198;-47
2022/09/03 06:48:49;;;;;;;2.38;1.10;;;18.70;99.90;;;;;;5053708;28;20163;-48
2022/09/03 06:51:17;;;;;;;2.35;1.65;;;18.70;99.90;;;;;;5053607;28;20631;-48
2022/09/03 06:53:46;;;;;;;4.47;1.50;;;18.70;99.90;;;;;;5053580;28;20634;-48
2022/09/03 06:56:15;;;;;;;3.40;1.20;;;18.80;99.90;;;;;;5053572;28;20173;-48
2022/09/03 06:58:43;;;;;;;3.10;1.50;;;18.80;99.90;;;;;;5053435;28;20646;-47
2022/09/03 07:01:10;;;;;;;1.60;1.48;;;18.80;99.90;;;;;;5053483;28;20190;-48
2022/09/03 07:03:37;;;;;;;2.10;1.30;;;18.90;99.90;;;;;;5053737;28;20159;-48
2022/09/03 07:06:07;;;;;;;3.03;1.85;;;19.00;99.90;;;;;;5053984;28;20197;-48
2022/09/03 07:08:34;;;;;;;1.60;1.48;;;19.10;99.90;;;;;;5053705;28;20174;-49
2022/09/03 07:11:07;;;;;;;1.50;1.40;;;19.10;99.90;;;;;;5053836;28;20167;-47
2022/09/03 07:13:34;;;;;;;3.65;1.60;;;19.20;99.90;;;;;;5053395;28;20735;-47
2022/09/03 07:16:08;;;;;;;2.55;1.70;;;19.20;99.90;;;;;;5053713;28;20175;-49
2022/09/03 07:18:35;;;;;;;2.83;1.40;;;19.30;99.90;;;;;;5053489;28;20158;-49
2022/09/03 07:21:03;;;;;;;3.17;1.52;;;19.20;99.90;;;;;;5051665;28;20171;-49
2022/09/03 07:23:29;;;;;;;2.90;1.58;;;19.20;99.90;;;;;;5053040;28;20170;-49
2022/09/03 07:25:57;;;;;;;2.53;1.48;;;19.20;99.90;;;;;;5053076;28;20531;-48
2022/09/03 07:28:26;;;;;;;2.80;1.30;;;19.20;99.90;;;;;;5052925;28;20171;-47
2022/09/03 07:30:53;;;;;;;2.05;1.30;;;19.30;99.90;;;;;;5052908;28;20171;-48
2022/09/03 07:33:19;;;;;;;2.90;1.00;;;19.40;99.90;;;;;;5052856;28;20159;-47
2022/09/03 07:35:45;;;;;;;1.30;1.20;;;19.30;99.90;;;;;;5052713;28;20216;-48
2022/09/03 07:38:16;;;;;;;2.33;1.33;;;19.30;99.90;;;;;;5052729;28;20209;-48
2022/09/03 07:40:42;;;;;;;16.13;1.55;;;19.50;99.90;;;;;;5052696;28;20167;-47
2022/09/03 07:43:08;;;;;;;1.25;1.15;;;19.50;99.90;;;;;;5052927;28;20193;-48
2022/09/03 07:45:34;;;;;;;1.42;1.10;;;19.50;99.90;;;;;;5052937;28;20626;-48
2022/09/03 07:47:59;;;;;;;2.67;1.30;;;19.50;99.90;;;;;;5053043;28;20207;-48
2022/09/03 07:50:25;;;;;;;1.67;1.10;;;19.50;99.90;;;;;;5052813;28;20177;-48
2022/09/03 07:52:58;;;;;;;1.73;1.25;;;19.60;99.90;;;;;;5051190;28;20170;-48
2022/09/03 07:55:24;;;;;;;1.33;1.23;;;19.40;99.90;;;;;;5052430;28;20171;-47
2022/09/03 07:57:55;;;;;;;1.55;1.20;;;19.40;99.90;;;;;;5052568;28;20194;-47
2022/09/03 08:00:20;;;;;;;1.65;1.30;;;19.50;99.90;;;;;;5052616;28;20175;-49
2022/09/03 08:02:46;;;;;;;3.00;1.40;;;19.70;99.90;;;;;;5052321;28;20518;-47
2022/09/03 08:05:12;;;;;;;2.38;1.40;;;19.90;99.90;;;;;;5052237;28;20175;-47
2022/09/03 08:07:37;;;;;;;3.83;1.10;;;20.00;99.90;;;;;;5052072;28;20212;-47
2022/09/03 08:10:03;;;;;;;4.40;1.35;;;20.00;99.90;;;;;;5052517;28;20167;-48
2022/09/03 08:12:31;;;;;;;2.85;1.30;;;19.90;99.90;;;;;;5051957;28;20181;-47
2022/09/03 08:14:57;;;;;;;1.98;1.40;;;20.00;99.90;;;;;;5052244;28;20186;-48
2022/09/03 08:17:22;;;;;;;1.48;1.27;;;20.10;99.90;;;;;;5052041;28;20166;-48
2022/09/03 08:19:48;;;;;;;2.90;1.40;;;20.20;99.90;;;;;;5052027;28;20190;-48
2022/09/03 08:22:14;;;;;;;3.67;1.48;;;20.30;99.90;;;;;;5052177;28;20250;-48
2022/09/03 08:24:40;;;;;;;3.88;1.40;;;20.30;99.90;;;;;;5051955;28;20159;-48
2022/09/03 08:27:06;;;;;;;3.67;1.60;;;20.40;99.90;;;;;;5051802;28;20242;-48
2022/09/03 08:29:32;;;;;;;6.97;1.70;;;20.60;99.90;;;;;;5052329;28;20174;-47
2022/09/03 08:31:57;;;;;;;2.80;1.65;;;21.00;99.90;;;;;;5051662;28;20247;-47
2022/09/03 08:34:23;;;;;;;4.85;2.15;;;21.40;99.90;;;;;;5051115;28;20159;-48
2022/09/03 08:36:51;;;;;;;1.90;1.70;;;21.70;99.90;;;;;;5051810;28;20166;-49
2022/09/03 08:39:16;;;;;;;3.45;2.08;;;22.00;99.90;;;;;;5051784;28;20159;-47
2022/09/03 08:41:51;;;;;;;6.28;1.85;;;22.00;99.90;;;;;;5051695;28;20171;-49
2022/09/03 08:44:38;;;;;;;4.32;2.03;;;21.90;99.90;;;;;;5051722;28;20253;-49
2022/09/03 08:47:09;;;;;;;2.95;1.75;;;21.80;99.90;;;;;;5052154;28;20212;-47
2022/09/03 08:50:06;;;;;;;3.15;2.15;;;21.70;99.90;;;;;;5050322;28;20609;-47
2022/09/03 08:52:35;;;;;;;2.92;2.00;;;21.90;99.90;;;;;;5051966;28;20174;-48
2022/09/03 08:55:25;;;;;;;4.88;2.28;;;21.80;99.90;;;;;;5052036;28;20185;-48
2022/09/03 08:58:10;;;;;;;4.47;2.33;;;21.80;99.90;;;;;;5051509;28;20170;-48
2022/09/03 09:01:00;;;;;;;2.88;1.85;;;21.80;99.90;;;;;;5051834;28;20181;-48
2022/09/03 09:03:43;;;;;;;3.63;1.58;;;21.70;99.90;;;;;;5051707;28;20174;-48
2022/09/03 09:06:17;;;;;;;5.72;1.60;;;21.20;99.90;;;;;;5051420;28;20185;-48
2022/09/03 09:08:50;;;;;;;3.90;1.85;;;21.30;99.90;;;;;;5051489;28;20162;-48
2022/09/03 09:11:23;;;;;;;1.88;1.52;;;21.40;99.90;;;;;;5051424;28;20194;-48
2022/09/03 09:13:59;;;;;;;3.53;2.78;;;21.50;99.90;;;;;;5051345;28;20300;-48
2022/09/03 09:16:38;;;;;;;1.60;1.42;;;21.50;99.90;;;;;;5051380;28;20720;-48
2022/09/03 09:19:15;;;;;;;4.43;1.80;;;21.50;99.90;;;;;;5051711;28;20198;-48
2022/09/03 09:21:48;;;;;;;2.75;1.40;;;21.40;99.90;;;;;;5051589;28;20170;-48
2022/09/03 09:24:25;;;;;;;6.35;1.83;;;21.40;99.90;;;;;;5051242;28;20170;-49
2022/09/03 09:26:55;;;;;;;4.30;1.70;;;21.30;99.90;;;;;;5051498;28;20263;-49
2022/09/03 09:29:20;;;;;;;4.60;1.90;;;21.50;99.90;;;;;;5051553;28;20178;-48
2022/09/03 09:31:46;;;;;;;4.50;2.25;;;21.70;99.90;;;;;;5051099;28;20565;-48
2022/09/03 09:34:12;;;;;;;1.90;1.70;;;21.50;99.90;;;;;;5050984;28;20178;-49
2022/09/03 09:36:51;;;;;;;5.60;1.98;;;21.50;99.90;;;;;;5050961;28;20212;-48
2022/09/03 09:39:17;;;;;;;2.42;2.00;;;21.60;99.90;;;;;;5051121;28;20246;-48
2022/09/03 09:42:07;;;;;;;5.90;1.77;;;21.80;99.90;;;;;;5051446;28;20170;-47
2022/09/03 09:44:34;;;;;;;2.42;1.70;;;21.70;99.90;;;;;;5052994;28;20174;-48
2022/09/03 09:47:07;;;;;;;3.15;1.80;;;21.70;99.90;;;;;;5055386;28;20206;-49
2022/09/03 09:49:44;;;;;;;4.18;2.25;;;21.70;99.90;;;;;;5055467;28;20167;-48
2022/09/03 09:52:12;;;;;;;4.85;2.78;;;21.90;99.90;;;;;;5054760;28;20166;-49
2022/09/03 09:54:39;;;;;;;2.53;2.08;;;22.10;99.90;;;;;;5054718;28;20687;-47
2022/09/03 09:57:07;;;;;;;2.72;1.70;;;22.20;99.90;;;;;;5054602;28;20651;-48
2022/09/03 09:59:36;;;;;;;1.90;1.80;;;22.30;99.90;;;;;;5054992;28;20635;-48
2022/09/03 10:02:18;;;;;;;2.10;1.70;;;22.40;99.90;;;;;;5055296;28;20179;-48
2022/09/03 10:04:44;;;;;;;2.53;1.88;;;22.30;99.90;;;;;;5054821;28;20166;-48
2022/09/03 10:07:30;;;;;;;6.00;1.88;;;22.70;99.90;;;;;;5054564;28;20249;-48
2022/09/03 10:10:15;;;;;;;11.48;2.28;;;22.60;99.90;;;;;;5054742;28;20257;-48
2022/09/03 10:12:50;;;;;;;3.72;1.60;;;22.60;99.90;;;;;;5054326;28;20210;-48
2022/09/03 10:15:32;;;;;;;4.22;2.00;;;22.40;99.90;;;;;;5053485;28;20189;-48
2022/09/03 10:18:25;;;;;;;3.10;1.60;;;22.30;99.90;;;;;;5054385;28;20155;-49
2022/09/03 10:21:03;;;;;;;4.35;1.58;;;22.20;99.90;;;;;;5054278;28;20170;-48
2022/09/03 10:23:46;;;;;;;2.10;1.90;;;22.30;99.90;;;;;;5053275;28;20174;-48
2022/09/03 10:26:28;;;;;;;2.55;1.75;;;22.30;99.90;;;;;;5054086;28;20194;-48
2022/09/03 10:28:58;;;;;;;3.83;1.75;;;22.30;99.90;;;;;;5053863;28;20181;-48
2022/09/03 10:31:23;;;;;;;2.17;1.80;;;22.50;99.90;;;;;;5052495;28;20623;-47
2022/09/03 10:33:59;;;;;;;3.30;2.08;;;22.80;99.90;;;;;;5054260;28;20231;-48
2022/09/03 10:36:55;;;;;;;4.32;1.55;;;22.90;99.90;;;;;;5053941;28;20166;-48
2022/09/03 10:39:46;;;;;;;4.60;1.90;;;23.10;99.90;;;;;;5053710;28;20159;-47
2022/09/03 10:42:24;;;;;;;4.63;2.20;;;23.10;99.90;;;;;;5053864;28;20172;-48
2022/09/03 10:45:00;;;;;;;3.95;1.80;;;23.10;99.90;;;;;;5053906;28;20167;-48
2022/09/03 10:47:41;;;;;;;2.75;2.22;;;23.00;99.90;;;;;;5053951;28;20214;-48
2022/09/03 10:50:18;;;;;;;1.83;1.70;;;23.00;99.90;;;;;;5053585;28;20163;-48
2022/09/03 10:53:04;;;;;;;1.83;1.70;;;23.00;99.90;;;;;;5053194;28;20173;-48
2022/09/03 10:55:42;;;;;;;2.67;1.80;;;23.20;99.90;;;;;;5053438;28;20182;-48
2022/09/03 10:58:22;;;;;;;2.92;1.98;;;23.50;99.90;;;;;;5053542;28;20163;-47
2022/09/03 11:01:13;;;;;;;3.17;2.22;;;23.40;99.90;;;;;;5053780;28;20202;-47
2022/09/03 11:03:53;;;;;;;3.83;2.05;;;23.60;99.90;;;;;;5053707;28;20170;-47
2022/09/03 11:06:29;;;;;;;2.28;2.08;;;23.90;99.90;;;;;;5053146;28;20189;-48
2022/09/03 11:09:18;;;;;;;3.25;2.10;;;24.00;99.90;;;;;;5053173;28;20174;-46
2022/09/03 11:12:02;;;;;;;4.93;1.70;;;23.90;99.90;;;;;;5053179;28;20254;-47
2022/09/03 11:14:43;;;;;;;2.90;2.10;;;24.20;99.90;;;;;;5053002;28;20236;-47
2022/09/03 11:17:19;;;;;;;3.10;2.40;;;24.30;99.90;;;;;;5052787;28;20167;-48
2022/09/03 11:19:50;;;;;;;2.60;2.40;;;24.20;99.90;;;;;;5052958;28;20265;-47
2022/09/03 11:22:18;;;;;;;3.00;1.77;;;24.40;99.90;;;;;;5052551;28;20167;-47
2022/09/03 11:24:55;;;;;;;2.85;2.05;;;24.90;99.90;;;;;;5053080;28;20630;-48
2022/09/03 11:27:42;;;;;;;3.67;2.20;;;25.00;99.90;;;;;;5052400;28;20284;-47
2022/09/03 11:30:28;;;;;;;2.97;2.20;;;25.10;99.90;;;;;;5053039;28;20590;-47
2022/09/03 11:33:00;;;;;;;4.38;2.55;;;25.50;99.90;;;;;;5052607;28;20623;-47
2022/09/03 11:35:36;;;;;;;4.03;2.40;;;25.40;99.90;;;;;;5052598;28;20200;-48
2022/09/03 11:38:13;;;;;;;5.18;2.90;;;25.40;99.90;;;;;;5052822;28;20241;-48
2022/09/03 11:40:56;;;;;;;5.18;3.25;;;25.40;99.90;;;;;;5052660;28;20170;-49
2022/09/03 11:43:25;;;;;;;4.60;2.80;;;25.30;99.90;;;;;;5052496;28;20170;-51
2022/09/03 11:46:11;;;;;;;6.57;3.15;;;25.50;99.90;;;;;;5052876;28;20189;-51
2022/09/03 11:48:37;;;;;;;3.45;2.40;;;25.40;99.90;;;;;;5052683;28;20175;-51
2022/09/03 11:51:14;;;;;;;7.15;2.30;;;25.60;99.90;;;;;;5051240;28;20178;-51
2022/09/03 11:53:40;;;;;;;4.22;2.40;;;25.30;99.90;;;;;;5051847;28;20185;-51
2022/09/03 11:56:05;;;;;;;2.92;1.90;;;25.20;99.90;;;;;;5052255;28;20257;-51
2022/09/03 11:58:36;;;;;;;3.05;1.83;;;25.10;99.90;;;;;;5052555;28;20634;-50
2022/09/03 12:01:09;;;;;;;4.20;2.45;;;25.60;99.90;;;;;;5052918;28;20182;-51
2022/09/03 12:03:43;;;;;;;2.95;2.17;;;25.60;99.90;;;;;;5052157;28;20180;-51
2022/09/03 12:06:30;;;;;;;5.55;2.00;;;25.80;99.90;;;;;;5052076;28;20157;-51
2022/09/03 12:09:24;;;;;;;4.50;2.78;;;26.10;99.90;;;;;;5051875;28;20224;-50
2022/09/03 12:12:26;;;;;;;6.70;2.40;;;25.70;99.90;;;;;;5051841;28;20534;-51
2022/09/03 12:15:08;;;;;;;2.90;2.17;;;25.80;99.90;;;;;;5051782;28;20225;-51
2022/09/03 12:18:17;;;;;;;1.92;1.73;;;25.90;99.90;;;;;;5051875;28;20169;-50
2022/09/03 12:20:40;;;;;;;5.00;3.38;;;26.00;99.90;;;;;;5051994;28;20181;-51
2022/09/03 12:23:07;;;;;;;4.20;2.60;;;26.10;99.90;;;;;;5051552;28;20192;-51
2022/09/03 12:25:32;;;;;;;4.70;2.67;;;26.20;99.90;;;;;;5052214;28;20174;-51
2022/09/03 12:28:03;;;;;;;5.32;2.35;;;26.50;99.90;;;;;;5051906;28;20198;-50
2022/09/03 12:30:30;;;;;;;2.85;2.40;;;26.70;99.90;;;;;;5052110;28;20162;-51
2022/09/03 12:33:06;;;;;;;2.92;2.63;;;26.60;99.90;;;;;;5050181;28;20529;-50
2022/09/03 12:35:31;;;;;;;2.25;2.05;;;26.90;99.90;;;;;;5052531;28;20511;-50
2022/09/03 12:37:57;;;;;;;5.07;2.75;;;27.10;99.90;;;;;;5049876;28;20169;-51
2022/09/03 12:40:26;;;;;;;3.30;2.30;;;27.00;99.90;;;;;;5051732;28;20168;-50
2022/09/03 12:42:53;;;;;;;2.85;2.40;;;26.50;99.90;;;;;;5051786;28;20162;-50
2022/09/03 12:45:22;;;;;;;3.42;2.80;;;26.60;99.90;;;;;;5051801;28;20227;-50
2022/09/03 12:47:48;;;;;;;4.53;2.78;;;26.80;99.90;;;;;;5051661;28;20285;-50
2022/09/03 12:50:18;;;;;;;5.40;3.35;;;26.90;99.90;;;;;;5051917;28;20170;-51
2022/09/03 12:52:48;;;;;;;4.00;2.70;;;26.90;99.90;;;;;;5051919;28;20180;-51
2022/09/03 12:55:29;;;;;;;5.82;2.67;;;27.10;99.90;;;;;;5051674;28;20162;-51
2022/09/03 12:58:01;;;;;;;7.00;3.00;;;27.10;99.90;;;;;;5051511;28;20162;-51
2022/09/03 13:00:31;;;;;;;2.75;2.47;;;27.20;99.90;;;;;;5051796;28;20167;-50
2022/09/03 13:03:16;;;;;;;3.97;2.58;;;27.20;99.90;;;;;;5051567;28;20163;-50
2022/09/03 13:05:46;;;;;;;3.30;2.28;;;27.00;99.90;;;;;;5051631;28;20582;-51
2022/09/03 13:08:24;;;;;;;3.17;2.40;;;27.10;99.90;;;;;;5051443;28;20204;-50
2022/09/03 13:10:53;;;;;;;2.85;2.50;;;26.90;99.90;;;;;;5051170;28;20161;-50
2022/09/03 13:13:25;;;;;;;2.72;2.50;;;26.80;99.90;;;;;;5051329;28;20716;-50
2022/09/03 13:16:08;;;;;;;2.92;2.13;;;27.00;99.90;;;;;;5051446;28;20265;-50